METAR Data
IDs: Format: Raw Decoded Include TAF

Data at: 2029 UTC 21 Sep 2021

Region: TOP
KATL 211952Z 06006KT 10SM SCT030TCU BKN060 BKN100 BKN200 29/21 A3003 RMK AO2 SLP159 TCU ALQDS T02890211

KBOS 211954Z 08010KT 10SM SCT050 SCT250 22/17 A3034 RMK AO2 SLP274 T02220172

KBWI 211954Z 12010KT 10SM FEW033 BKN041 BKN075 BKN200 27/17 A3021 RMK AO2 SLP228 T02720172

KCLE 211951Z 19010KT 10SM OVC020 22/18 A3006 RMK AO2 SLP191 T02220178

KCLT 211952Z 06005KT 4SM RA BR OVC007 23/21 A3010 RMK AO2 RAB1857E09B33 SLP185 T02280211 PNO

KCVG 211952Z 15009KT 10SM BKN015 OVC024 23/19 A3003 RMK AO2 SLP162 T02330194

KDCA 211952Z 14011KT 10SM SCT043 BKN050 OVC070 27/18 A3021 RMK AO2 SLP229 T02670183

KDEN 211955Z 04004KT 10SM FEW080 FEW220 17/M06 A3049 RMK AO2 T01671056

KDFW 211953Z 36016G26KT 10SM FEW160 BKN240 30/11 A3011 RMK AO2 PK WND 01027/1916 SLP187 T03000111

KDTW 211953Z 18011KT 8SM SCT014 BKN060 BKN150 24/20 A3002 RMK AO2 SLP163 T02440200

KEWR 211951Z 11007G14KT 060V120 10SM SCT034 BKN250 26/17 A3029 RMK AO2 SLP256 T02610167

KFLL 211953Z 06006KT 10SM TS FEW021 FEW028CB FEW110 SCT150 BKN200 BKN250 29/27 A2999 RMK AO2 LTG DSNT SW AND W TSB53 SLP156 OCNL LTGICCG SW TS SW MOV NW CB DSNT SW T02890272

KIAD 211952Z 14007KT 10SM SCT033 BKN055 OVC075 26/18 A3020 RMK AO2 SLP223 T02610183

KIAH 211953Z 32006KT 10SM SCT050 SCT250 35/22 A3001 RMK AO2 SLP162 T03500222

KJFK 211951Z 13011KT 10SM SCT022 SCT029 BKN055 BKN250 24/19 A3030 RMK AO2 SLP262 T02440189

KLAS 211956Z VRB04KT 10SM CLR 30/M08 A3025 RMK AO2 SLP222 T03001078

KLAX 211953Z 27012KT 9SM CLR 26/17 A3006 RMK AO2 SLP175 T02610172

KLGA 211951Z 05012KT 10SM SCT032 SCT046 BKN060 23/18 A3029 RMK AO2 SLP256 T02330178

KMCO 212008Z 16007KT 10SM TS FEW010 FEW050CB SCT100 BKN200 BKN300 27/23 A3003 RMK AO2 LTG DSNT S-NW TSE03B08 FRQ LTGICCG NW-N TS NW-N MOV S T02670233

KMDW 211953Z 01010KT 10SM BKN034 OVC043 20/12 A3007 RMK AO2 SLP177 T02000117

KMEM 212026Z 34005G14KT 10SM -RA SCT024 BKN032 BKN100 OVC200 26/21 A3001 RMK AO2 RAB17 P0000 T02560206

KMIA 212011Z 11005KT 10SM FEW020 SCT080 SCT160 OVC250 30/24 A3000 RMK AO2 LTG DSNT W-N CB DSNT W-N MOV NW T03000244 $

KMSP 211953Z 33013G22KT 10SM SCT050 SCT150 19/07 A3021 RMK AO2 SLP230 T01890072

KORD 211951Z 34011G19KT 10SM FEW028 BKN039 OVC140 19/12 A3009 RMK AO2 SLP186 T01890122

KPDX 211953Z 32004KT 10SM FEW200 BKN250 24/10 A3008 RMK AO2 SLP185 T02390100

KPHL 211954Z 12007KT 10SM SCT043 BKN070 BKN280 28/17 A3025 RMK AO2 SLP242 T02780172

KPHX 211951Z 28004KT 10SM CLR 36/04 A3007 RMK AO2 SLP161 T03610044

KPIT 211951Z 19005KT 10SM SCT046 BKN065 OVC200 24/16 A3014 RMK AO2 SLP207 T02390161

KSAN 211951Z 29009KT 10SM FEW040 27/17 A3004 RMK AO2 SLP172 T02720172

KSEA 211953Z 30007KT 10SM FEW150 FEW250 21/11 A3014 RMK AO2 SLP211 T02110106

KSFO 211956Z 00000KT 10SM FEW200 27/11 A3006 RMK AO2 SLP178 T02720106

KSLC 211954Z 00000KT 10SM CLR 21/M06 A3046 RMK AO2 SLP287 T02061061

KSTL 211951Z 33009KT 10SM FEW028 BKN031 OVC090 20/14 A3012 RMK AO2 SLP192 T02000139 $

KTPA 211953Z 25008KT 10SM SCT036 SCT250 32/24 A2998 RMK AO2 LTG DSNT E SLP152 CB DSNT E-S T03220239